createdAt,value
2023-03-16T05:47:37.237Z,1.20
2023-03-16T05:50:06.088Z,1.10
2023-03-16T05:52:34.417Z,1.20
2023-03-16T05:55:02.353Z,1.20
2023-03-16T05:57:30.281Z,1.30
2023-03-16T05:59:58.168Z,1.30
2023-03-16T06:02:26.831Z,1.40
2023-03-16T06:04:56.339Z,1.50
2023-03-16T06:07:24.458Z,1.50
2023-03-16T06:09:52.452Z,1.60
2023-03-16T06:12:20.343Z,1.60
2023-03-16T06:14:48.234Z,1.70
2023-03-16T06:17:16.084Z,1.70
2023-03-16T06:19:44.092Z,1.70
2023-03-16T06:22:13.518Z,1.70
2023-03-16T06:24:41.572Z,1.80
2023-03-16T06:27:09.667Z,1.80
2023-03-16T06:29:37.792Z,1.90
2023-03-16T06:32:06.578Z,2.00
2023-03-16T06:34:37.623Z,2.10
2023-03-16T06:37:06.517Z,2.10
2023-03-16T06:39:35.969Z,2.20
2023-03-16T06:42:04.610Z,2.20
2023-03-16T06:44:32.826Z,2.40
2023-03-16T06:47:01.767Z,2.50
2023-03-16T06:49:29.826Z,3.10
2023-03-16T06:51:58.683Z,4.80
2023-03-16T06:54:26.964Z,6.60
2023-03-16T06:56:56.266Z,7.60
2023-03-16T06:59:24.374Z,8.10
2023-03-16T07:01:52.512Z,9.30
2023-03-16T07:04:20.549Z,9.50
2023-03-16T07:06:48.483Z,10.30
2023-03-16T07:09:16.394Z,11.30
2023-03-16T07:11:44.760Z,11.80
2023-03-16T07:14:14.065Z,12.60
2023-03-16T07:16:42.033Z,12.90
2023-03-16T07:19:09.996Z,12.90
2023-03-16T07:21:40.075Z,13.20
2023-03-16T07:24:09.478Z,12.50
2023-03-16T07:26:37.500Z,12.30
2023-03-16T07:29:06.365Z,13.00
2023-03-16T07:31:35.884Z,13.00
2023-03-16T07:34:05.218Z,12.20
2023-03-16T07:36:33.269Z,11.70
2023-03-16T07:39:01.294Z,12.00
2023-03-16T07:41:30.557Z,12.80
2023-03-16T07:44:00.147Z,13.60
2023-03-16T15:02:35.694Z,12.00
2023-03-16T15:05:04.673Z,11.90
2023-03-16T15:07:36.553Z,11.80
2023-03-16T15:10:10.276Z,11.80
2023-03-16T15:12:38.435Z,11.60
2023-03-16T15:15:16.500Z,11.60
2023-03-16T15:17:45.862Z,11.60
2023-03-16T15:20:15.584Z,11.70
2023-03-16T15:22:44.929Z,11.60
2023-03-16T15:25:30.148Z,11.50
2023-03-16T15:27:58.523Z,11.60
2023-03-16T15:30:28.670Z,11.50
2023-03-16T15:32:58.157Z,11.40
2023-03-16T15:35:26.087Z,11.50
2023-03-16T15:37:54.032Z,11.50
2023-03-16T15:40:25.222Z,11.50
2023-03-16T15:42:53.776Z,11.50
2023-03-16T15:45:23.845Z,11.50
2023-03-16T15:47:53.650Z,11.50
2023-03-16T15:50:25.766Z,11.50
2023-03-16T15:52:58.002Z,11.50
2023-03-16T15:55:33.055Z,11.50
2023-03-16T15:58:02.361Z,11.50
2023-03-16T16:00:33.200Z,11.40
2023-03-16T16:03:02.286Z,11.30
2023-03-16T16:05:32.439Z,11.20
2023-03-16T16:08:00.512Z,11.20
2023-03-16T16:10:29.126Z,11.20
2023-03-16T16:13:00.060Z,11.10
2023-03-16T16:15:32.385Z,11.00
2023-03-16T16:18:21.201Z,11.00
2023-03-16T16:20:51.319Z,10.90
2023-03-16T16:23:19.925Z,10.90
2023-03-16T16:25:49.676Z,10.90
2023-03-16T16:28:20.701Z,10.80
2023-03-16T16:30:49.018Z,10.80
2023-03-16T16:33:27.478Z,10.70
2023-03-16T16:35:59.104Z,10.60
2023-03-16T16:38:27.427Z,10.50
2023-03-16T16:40:58.673Z,10.50
2023-03-16T16:43:33.484Z,10.40
2023-03-16T16:46:04.263Z,10.30
2023-03-16T16:48:34.984Z,10.30
2023-03-16T16:51:07.112Z,10.20
2023-03-16T16:53:35.391Z,10.20
2023-03-16T16:56:03.624Z,10.10
2023-03-16T16:58:32.198Z,10.10
2023-03-16T17:01:00.291Z,10.00
2023-03-16T17:03:30.036Z,9.90
2023-03-16T17:05:59.440Z,9.90
2023-03-16T17:08:29.145Z,9.90
2023-03-16T17:10:57.245Z,9.80
2023-03-16T17:13:29.763Z,9.70
2023-03-16T17:15:57.824Z,9.60
2023-03-16T17:18:25.801Z,9.60
2023-03-16T17:20:53.861Z,9.70
2023-03-16T17:23:34.925Z,9.60
2023-03-16T17:26:08.688Z,9.40
2023-03-16T17:28:40.535Z,9.40
2023-03-16T17:31:08.836Z,9.40
2023-03-16T17:33:36.812Z,9.30
2023-03-16T17:36:05.004Z,9.20
2023-03-16T17:38:35.123Z,9.20
2023-03-16T17:41:03.188Z,9.20
2023-03-16T17:43:32.772Z,9.10
2023-03-16T17:46:02.723Z,9.00
2023-03-16T17:48:30.788Z,8.90
2023-03-16T17:50:59.267Z,8.80
2023-03-16T17:53:27.258Z,8.80
2023-03-16T17:55:57.154Z,8.80
2023-03-16T17:58:28.945Z,8.80
2023-03-16T18:00:58.423Z,8.80
2023-03-16T18:03:29.341Z,8.70
2023-03-16T18:05:58.624Z,8.70
2023-03-16T18:08:28.945Z,8.60
2023-03-16T18:11:00.955Z,8.60
2023-03-16T18:13:32.478Z,8.60
2023-03-16T18:16:01.625Z,8.40
2023-03-16T18:18:32.774Z,8.50
2023-03-16T18:21:00.708Z,8.40
2023-03-16T18:23:30.932Z,8.30
2023-03-16T18:26:02.192Z,8.30
2023-03-16T18:28:31.399Z,8.20
2023-03-16T18:31:00.022Z,8.20
2023-03-16T18:33:31.000Z,8.10
2023-03-16T18:36:01.253Z,8.10
2023-03-16T18:38:32.756Z,8.10
2023-03-16T18:41:05.743Z,8.00
2023-03-16T18:43:33.714Z,8.00
2023-03-16T18:46:01.944Z,8.10
2023-03-16T18:48:32.425Z,8.10
2023-03-16T18:51:00.902Z,8.20
2023-03-16T18:53:29.696Z,8.00
2023-03-16T18:55:57.852Z,8.10
2023-03-16T18:58:27.242Z,8.00
2023-03-16T19:00:56.811Z,8.00
2023-03-16T19:03:28.055Z,7.90
2023-03-16T19:05:57.653Z,7.90
2023-03-16T19:08:26.453Z,7.80
2023-03-16T19:10:57.331Z,7.80
2023-03-16T19:13:27.030Z,7.80
2023-03-16T19:15:57.768Z,7.80
2023-03-16T19:18:26.685Z,7.80
2023-03-16T19:20:56.014Z,7.70
2023-03-16T19:23:28.563Z,7.60
2023-03-16T19:25:57.962Z,7.60
2023-03-16T19:28:34.070Z,7.60
2023-03-16T19:31:03.000Z,7.50
2023-03-16T19:33:31.125Z,7.50
2023-03-16T19:35:59.878Z,7.50
2023-03-16T19:38:28.316Z,7.50
2023-03-16T19:40:58.887Z,7.50
2023-03-16T19:43:29.228Z,7.50
2023-03-16T19:45:57.286Z,7.60
2023-03-16T19:48:30.465Z,7.60
2023-03-16T19:50:58.549Z,7.50
2023-03-16T19:53:27.316Z,7.50
2023-03-16T19:55:55.876Z,7.50
2023-03-16T19:58:32.009Z,7.50
2023-03-16T20:01:01.108Z,7.40
2023-03-16T20:03:29.705Z,7.40
2023-03-16T20:05:57.738Z,7.40
2023-03-16T20:08:27.664Z,7.30
2023-03-16T20:11:00.856Z,7.30
2023-03-16T20:13:31.328Z,7.30
2023-03-16T20:15:59.619Z,7.30
2023-03-16T20:18:28.741Z,7.20
2023-03-16T20:20:57.034Z,7.20
2023-03-16T20:23:26.606Z,7.20
2023-03-16T20:25:56.366Z,7.20
2023-03-16T20:28:26.580Z,7.10
2023-03-16T20:30:55.850Z,7.20
2023-03-16T20:33:25.489Z,7.20
2023-03-16T20:35:54.380Z,7.10
2023-03-16T20:38:22.846Z,7.20
2023-03-16T20:40:54.947Z,7.10
2023-03-16T20:43:26.471Z,7.00
2023-03-16T20:45:57.300Z,7.00
2023-03-16T20:48:26.023Z,7.00
2023-03-16T20:50:54.964Z,7.00
2023-03-16T20:53:23.691Z,6.90
2023-03-16T20:55:52.634Z,6.90
2023-03-16T20:58:24.541Z,6.90
